createdAt,value
2022-11-13T00:00:43.921Z,5.90
2022-11-13T00:03:11.577Z,5.80
2022-11-13T00:05:40.506Z,5.80
2022-11-13T00:08:08.199Z,5.80
2022-11-13T00:10:35.853Z,5.80
2022-11-13T00:13:03.429Z,5.80
2022-11-13T00:15:30.988Z,5.80
2022-11-13T00:18:01.252Z,5.80
2022-11-13T00:20:28.954Z,5.80
2022-11-13T00:22:57.940Z,5.90
2022-11-13T00:25:25.557Z,5.90
2022-11-13T00:27:53.198Z,5.90
2022-11-13T00:30:21.564Z,5.90
2022-11-13T00:32:49.170Z,5.90
2022-11-13T00:35:16.887Z,5.90
2022-11-13T00:37:44.437Z,5.80
2022-11-13T00:40:13.543Z,5.70
2022-11-13T00:42:41.133Z,5.60
2022-11-13T00:45:09.412Z,5.80
2022-11-13T00:47:36.979Z,5.80
2022-11-13T00:50:04.774Z,5.90
2022-11-13T00:52:32.342Z,5.90
2022-11-13T00:54:59.896Z,5.90
2022-11-13T00:57:28.790Z,6.00
2022-11-13T00:59:56.854Z,6.00
2022-11-13T01:02:24.477Z,6.00
2022-11-13T01:04:52.095Z,6.00
2022-11-13T01:07:19.729Z,6.00
2022-11-13T01:09:50.572Z,5.90
2022-11-13T01:12:18.224Z,6.00
2022-11-13T01:14:47.189Z,6.00
2022-11-13T01:17:14.745Z,6.00
2022-11-13T01:19:42.320Z,6.00
2022-11-13T01:22:09.864Z,6.00
2022-11-13T01:24:37.484Z,6.00
2022-11-13T01:27:05.196Z,6.00
2022-11-13T01:29:32.900Z,6.00
2022-11-13T01:32:01.846Z,6.00
2022-11-13T01:34:29.387Z,6.00
2022-11-13T01:36:56.988Z,6.00
2022-11-13T01:39:24.574Z,6.00
2022-11-13T01:41:52.200Z,6.00
2022-11-13T01:44:20.618Z,6.00
2022-11-13T01:46:49.750Z,6.00
2022-11-13T01:49:25.900Z,6.00
2022-11-13T01:51:55.461Z,6.00
2022-11-13T01:54:24.813Z,6.00
2022-11-13T01:56:53.054Z,6.00
2022-11-13T01:59:23.786Z,6.10
2022-11-13T02:01:51.367Z,6.00
2022-11-13T02:04:20.294Z,6.10
2022-11-13T02:06:49.203Z,6.10
2022-11-13T02:09:17.210Z,6.10
2022-11-13T02:11:44.871Z,6.00
2022-11-13T02:20:18.454Z,6.10
2022-11-13T02:22:48.383Z,6.00
2022-11-13T02:25:17.705Z,6.00
2022-11-13T02:27:45.925Z,6.00
2022-11-13T02:30:16.475Z,6.30
2022-11-13T02:32:45.316Z,6.10
2022-11-13T02:35:13.546Z,6.10
2022-11-13T02:37:41.190Z,6.10
2022-11-13T02:40:09.458Z,6.20
2022-11-13T02:42:38.424Z,6.10
2022-11-13T02:45:06.560Z,5.90
2022-11-13T02:47:34.558Z,6.10
2022-11-13T02:50:02.485Z,6.00
2022-11-13T02:52:31.341Z,6.10
2022-11-13T02:54:58.978Z,6.10
2022-11-13T02:57:26.788Z,6.10
2022-11-13T02:59:55.812Z,6.40
2022-11-13T03:02:23.476Z,6.10
2022-11-13T03:05:11.476Z,6.10
2022-11-13T03:07:38.857Z,6.10
2022-11-13T03:10:07.062Z,6.00
2022-11-13T03:12:34.894Z,6.00
2022-11-13T03:15:03.961Z,6.00
2022-11-13T03:17:31.852Z,6.00
2022-11-13T03:19:59.614Z,6.00
2022-11-13T03:22:27.396Z,6.00
2022-11-13T03:24:55.046Z,6.10
2022-11-13T03:27:22.745Z,5.90
2022-11-13T03:29:52.064Z,5.90
2022-11-13T03:32:21.156Z,5.90
2022-11-13T03:34:48.786Z,5.80
2022-11-13T03:37:16.451Z,5.90
2022-11-13T03:39:44.096Z,5.80
2022-11-13T03:42:11.821Z,5.90
2022-11-13T03:44:39.442Z,5.90
2022-11-13T03:47:07.112Z,5.90
2022-11-13T03:49:36.175Z,5.90
2022-11-13T03:52:03.896Z,5.90
2022-11-13T03:54:31.606Z,6.00
2022-11-13T03:56:59.287Z,6.00
2022-11-13T03:59:26.901Z,5.90
2022-11-13T04:01:54.642Z,5.90
2022-11-13T04:04:22.329Z,5.90
2022-11-13T04:06:51.332Z,5.80
2022-11-13T04:09:19.031Z,5.90
2022-11-13T04:11:46.677Z,6.10
2022-11-13T04:14:14.309Z,5.90
2022-11-13T04:16:42.016Z,5.90
2022-11-13T04:19:09.775Z,5.90
2022-11-13T04:21:37.370Z,5.80
2022-11-13T04:24:06.865Z,5.80
2022-11-13T04:26:34.664Z,5.80
2022-11-13T04:29:02.513Z,5.80
2022-11-13T04:31:30.228Z,5.80
2022-11-13T04:33:57.892Z,6.10
2022-11-13T04:36:25.520Z,5.70
2022-11-13T04:38:53.171Z,5.70
2022-11-13T04:41:55.133Z,5.70
2022-11-13T04:44:23.450Z,5.70
2022-11-13T04:46:51.145Z,5.70
2022-11-13T04:49:18.840Z,5.70
2022-11-13T04:51:46.568Z,5.60
2022-11-13T04:54:14.239Z,5.70
2022-11-13T04:56:43.432Z,5.80
2022-11-13T04:59:13.327Z,5.40
2022-11-13T05:01:41.256Z,5.30
2022-11-13T05:04:11.716Z,5.30
2022-11-13T05:06:39.474Z,5.60
2022-11-13T05:09:07.446Z,5.30
2022-11-13T05:11:35.502Z,5.30
2022-11-13T05:14:05.181Z,5.20
2022-11-13T05:16:33.055Z,5.20
2022-11-13T05:19:01.004Z,5.30
2022-11-13T05:21:28.767Z,5.30
2022-11-13T05:23:56.480Z,5.30
2022-11-13T05:26:24.165Z,5.20
2022-11-13T05:28:51.789Z,5.50
2022-11-13T05:31:20.944Z,5.20
2022-11-13T05:33:49.292Z,5.20
2022-11-13T05:36:17.867Z,5.20
2022-11-13T05:38:45.683Z,5.30
2022-11-13T05:41:14.187Z,5.20
2022-11-13T05:43:42.170Z,5.20
2022-11-13T05:46:24.315Z,5.20
2022-11-13T05:48:53.863Z,5.30
2022-11-13T05:51:22.703Z,5.20
2022-11-13T05:53:50.448Z,5.20
2022-11-13T05:56:19.587Z,5.20
2022-11-13T05:58:47.767Z,5.30
2022-11-13T06:01:17.269Z,5.20
2022-11-13T06:03:46.649Z,5.20
2022-11-13T06:06:15.187Z,5.20
2022-11-13T06:08:42.972Z,5.10
2022-11-13T06:11:14.267Z,5.10
2022-11-13T06:13:43.037Z,5.20
2022-11-13T06:16:11.780Z,5.40
2022-11-13T06:18:40.100Z,5.60
2022-11-13T06:21:10.219Z,5.30
2022-11-13T06:23:38.606Z,5.30
2022-11-13T06:26:07.632Z,5.30
2022-11-13T06:28:35.601Z,5.30
2022-11-13T06:31:03.778Z,5.30
2022-11-13T06:33:31.589Z,5.30
2022-11-13T06:36:01.775Z,5.30
2022-11-13T06:38:32.775Z,5.50
2022-11-13T06:41:00.836Z,5.30
2022-11-13T06:43:28.494Z,4.90
2022-11-13T06:46:02.130Z,5.40
2022-11-13T06:48:29.937Z,5.50
2022-11-13T06:51:01.271Z,5.30
2022-11-13T06:53:29.012Z,5.30
2022-11-13T06:55:58.413Z,5.40
2022-11-13T06:58:26.450Z,5.30
2022-11-13T07:00:54.275Z,5.40
2022-11-13T07:03:23.088Z,5.40
2022-11-13T07:05:50.837Z,5.40
2022-11-13T07:08:18.902Z,5.50
2022-11-13T07:10:53.910Z,5.50
2022-11-13T07:13:23.167Z,5.50
2022-11-13T07:15:50.797Z,5.40
2022-11-13T07:18:23.739Z,5.50
2022-11-13T07:20:51.768Z,5.70
2022-11-13T07:23:19.366Z,5.60
2022-11-13T07:25:47.084Z,5.60
2022-11-13T07:28:14.761Z,5.70
2022-11-13T07:30:43.753Z,5.60
2022-11-13T07:33:11.409Z,5.70
2022-11-13T07:35:39.099Z,5.70
2022-11-13T07:38:06.915Z,5.80
2022-11-13T07:40:34.586Z,6.00
2022-11-13T07:43:02.992Z,5.80
2022-11-13T07:45:30.578Z,6.00
2022-11-13T07:48:00.240Z,6.00
2022-11-13T07:50:28.610Z,6.20
2022-11-13T07:52:57.163Z,6.30
2022-11-13T07:55:24.763Z,6.40
2022-11-13T07:57:52.482Z,6.50
2022-11-13T08:00:20.212Z,6.60
2022-11-13T08:02:48.186Z,6.70
2022-11-13T08:05:17.560Z,6.70
2022-11-13T08:07:51.208Z,6.80
2022-11-13T08:10:20.245Z,6.80
2022-11-13T08:12:48.212Z,6.90
2022-11-13T08:15:20.507Z,6.90
2022-11-13T08:17:54.297Z,6.60
2022-11-13T08:20:23.385Z,7.00
2022-11-13T08:22:51.345Z,7.10
2022-11-13T08:25:19.722Z,7.40
2022-11-13T08:27:49.340Z,7.20
2022-11-13T08:30:17.369Z,7.30
2022-11-13T08:32:49.415Z,7.80
2022-11-13T08:35:19.412Z,7.40
2022-11-13T08:37:49.387Z,7.60
2022-11-13T08:40:21.627Z,7.60
2022-11-13T08:42:50.040Z,7.70
2022-11-13T08:45:18.096Z,7.80
2022-11-13T08:47:45.817Z,8.00
2022-11-13T08:50:13.507Z,7.90
2022-11-13T08:52:47.717Z,7.80
2022-11-13T08:55:16.970Z,7.80
2022-11-13T08:57:44.820Z,7.90
2022-11-13T09:00:45.629Z,7.90
2022-11-13T09:03:13.551Z,8.00
2022-11-13T09:05:43.580Z,8.00
2022-11-13T09:08:11.566Z,7.60
2022-11-13T09:10:40.645Z,7.90
2022-11-13T09:13:11.670Z,8.00
2022-11-13T09:16:08.794Z,8.10
2022-11-13T09:18:36.627Z,8.20
2022-11-13T09:21:04.803Z,8.40
2022-11-13T09:23:32.529Z,8.60
2022-11-13T09:26:21.401Z,8.40
2022-11-13T09:28:50.550Z,8.50
2022-11-13T09:31:18.608Z,8.50
2022-11-13T09:33:53.826Z,8.50
2022-11-13T09:36:23.477Z,8.40
2022-11-13T09:39:21.281Z,8.50
2022-11-13T09:41:58.768Z,8.10
2022-11-13T09:44:36.560Z,8.50
2022-11-13T09:50:42.375Z,8.40
2022-11-13T09:53:11.033Z,8.20
2022-11-13T09:55:46.216Z,8.60
2022-11-13T09:58:27.305Z,8.80
2022-11-13T10:01:03.338Z,8.80
2022-11-13T10:06:24.272Z,8.80
2022-11-13T10:08:53.339Z,8.80
2022-11-13T10:11:24.271Z,8.80
2022-11-13T10:13:55.550Z,8.90
2022-11-13T10:16:29.746Z,9.00
2022-11-13T10:19:01.544Z,8.80
2022-11-13T10:21:32.578Z,8.70
2022-11-13T10:24:14.448Z,8.90
2022-11-13T10:26:44.460Z,8.50
2022-11-13T10:29:16.076Z,8.60
2022-11-13T10:31:49.039Z,8.50
2022-11-13T10:34:17.482Z,8.60
2022-11-13T10:36:51.377Z,8.50
2022-11-13T10:39:19.138Z,8.70
2022-11-13T10:41:47.594Z,8.50
2022-11-13T10:44:30.505Z,8.60
2022-11-13T10:47:14.994Z,8.60
2022-11-13T10:49:42.905Z,8.30
2022-11-13T10:52:18.051Z,8.70
2022-11-13T10:54:45.739Z,8.50
2022-11-13T10:57:22.490Z,8.60
2022-11-13T10:59:51.854Z,8.70
2022-11-13T11:02:22.533Z,8.70
2022-11-13T11:04:50.378Z,9.00
2022-11-13T11:07:20.935Z,9.00
2022-11-13T11:09:49.634Z,8.90
2022-11-13T11:12:21.270Z,8.90
2022-11-13T11:15:00.853Z,9.20
2022-11-13T11:17:32.604Z,8.90
2022-11-13T11:20:02.995Z,8.90
2022-11-13T11:22:32.622Z,8.80
2022-11-13T11:25:02.656Z,8.80
2022-11-13T11:27:35.257Z,8.90
2022-11-13T11:30:05.542Z,8.90
2022-11-13T11:32:42.916Z,9.10
2022-11-13T11:35:15.580Z,9.00
2022-11-13T11:37:50.920Z,9.50
2022-11-13T11:40:23.220Z,9.00
2022-11-13T11:42:55.200Z,8.90
2022-11-13T11:45:25.450Z,8.90
2022-11-13T11:47:55.111Z,8.90
2022-11-13T11:50:28.856Z,9.00
2022-11-13T11:53:00.936Z,9.10
2022-11-13T11:55:32.607Z,9.50
2022-11-13T11:58:06.290Z,9.20
2022-11-13T12:00:36.163Z,9.20
2022-11-13T12:03:21.993Z,8.90
2022-11-13T12:06:00.007Z,9.00
2022-11-13T12:08:31.602Z,9.20
2022-11-13T12:11:03.522Z,9.30
2022-11-13T12:13:32.421Z,9.40
2022-11-13T12:16:03.534Z,9.40
2022-11-13T12:18:36.975Z,9.30
2022-11-13T12:21:10.356Z,9.40
2022-11-13T12:23:46.583Z,9.50
2022-11-13T12:26:19.290Z,9.60
2022-11-13T12:28:50.882Z,9.50
2022-11-13T12:31:40.130Z,9.60
2022-11-13T12:34:12.887Z,9.80
2022-11-13T12:36:40.998Z,9.80
2022-11-13T12:39:20.811Z,9.50
2022-11-13T12:41:50.781Z,9.60
2022-11-13T12:44:25.363Z,9.60
2022-11-13T12:50:05.957Z,9.60
2022-11-13T12:52:34.102Z,9.60
2022-11-13T12:55:06.549Z,9.70
2022-11-13T12:57:34.373Z,9.60
2022-11-13T13:00:12.772Z,9.60
2022-11-13T13:02:48.031Z,9.50
2022-11-13T13:05:25.380Z,9.60
2022-11-13T13:08:05.682Z,9.70
2022-11-13T13:10:38.905Z,9.60
2022-11-13T13:13:10.861Z,9.60
2022-11-13T13:15:39.572Z,9.60
2022-11-13T13:18:12.277Z,9.50
2022-11-13T13:20:42.214Z,9.60
2022-11-13T13:23:11.967Z,9.70
2022-11-13T13:25:40.260Z,9.50
2022-11-13T13:28:20.109Z,9.60
2022-11-13T13:30:52.319Z,9.50
2022-11-13T13:33:23.003Z,9.60
2022-11-13T13:35:55.693Z,9.80
2022-11-13T13:38:25.409Z,9.80
2022-11-13T13:41:02.181Z,9.70
2022-11-13T13:43:35.168Z,9.60
2022-11-13T13:46:07.142Z,9.50
2022-11-13T13:48:38.419Z,9.60
2022-11-13T13:51:13.165Z,9.50
2022-11-13T13:53:40.740Z,9.70
2022-11-13T13:56:10.920Z,9.50
2022-11-13T13:58:38.953Z,9.50
2022-11-13T14:01:22.983Z,9.50
2022-11-13T14:03:50.683Z,9.50
2022-11-13T14:06:21.469Z,9.50
2022-11-13T14:08:49.326Z,9.50
2022-11-13T14:11:17.871Z,9.60
2022-11-13T14:13:45.415Z,9.60
2022-11-13T14:16:13.939Z,9.60
2022-11-13T14:18:41.585Z,9.60
2022-11-13T14:21:16.477Z,9.50
2022-11-13T14:23:46.766Z,9.60
2022-11-13T14:26:14.539Z,9.50
2022-11-13T14:28:50.985Z,9.40
2022-11-13T14:31:20.982Z,9.50
2022-11-13T14:33:49.855Z,9.50
2022-11-13T14:36:25.601Z,9.50
2022-11-13T14:38:55.608Z,9.60
2022-11-13T14:41:25.421Z,9.60
2022-11-13T14:43:54.280Z,9.60
2022-11-13T14:46:29.755Z,9.70
2022-11-13T14:48:57.779Z,9.70
2022-11-13T14:51:26.484Z,9.70
2022-11-13T14:54:01.392Z,9.60
2022-11-13T14:56:35.564Z,9.50
2022-11-13T14:59:10.042Z,9.60
2022-11-13T15:01:37.762Z,9.70
2022-11-13T15:04:05.620Z,9.50
2022-11-13T15:06:37.484Z,9.60
2022-11-13T15:09:07.521Z,9.50
2022-11-13T15:11:35.202Z,9.40
2022-11-13T15:14:04.457Z,9.70
2022-11-13T15:16:32.550Z,9.60
2022-11-13T15:19:01.359Z,9.50
2022-11-13T15:21:29.433Z,9.50
2022-11-13T15:23:57.602Z,9.60
2022-11-13T15:26:26.824Z,9.50
2022-11-13T15:28:54.813Z,9.40
2022-11-13T15:31:24.139Z,9.50
2022-11-13T15:33:51.747Z,9.50
2022-11-13T15:36:19.499Z,9.50
2022-11-13T15:38:47.080Z,9.50
2022-11-13T15:41:15.436Z,9.60
2022-11-13T15:43:46.539Z,9.70
2022-11-13T15:46:16.165Z,9.70
2022-11-13T15:48:44.097Z,9.70
2022-11-13T15:51:16.586Z,9.70
2022-11-13T15:53:44.353Z,9.70
2022-11-13T15:56:12.023Z,9.70
2022-11-13T15:58:39.636Z,9.70
2022-11-13T16:01:09.918Z,9.70
2022-11-13T16:03:40.143Z,9.70
2022-11-13T16:06:09.917Z,9.70
2022-11-13T16:08:37.666Z,9.70
2022-11-13T16:11:05.438Z,9.80
2022-11-13T16:13:33.065Z,9.80
2022-11-13T16:16:01.146Z,9.70
2022-11-13T16:18:31.471Z,9.80
2022-11-13T16:20:59.142Z,9.80
2022-11-13T16:23:26.964Z,9.80
2022-11-13T16:25:55.291Z,9.70
2022-11-13T16:28:22.902Z,9.70
2022-11-13T16:30:50.552Z,9.70
2022-11-13T16:33:18.103Z,9.70
2022-11-13T16:35:47.038Z,9.80
2022-11-13T16:38:14.849Z,9.70
2022-11-13T16:40:43.256Z,9.80
2022-11-13T16:43:10.983Z,9.70
2022-11-13T16:45:38.869Z,9.80
2022-11-13T16:48:06.991Z,10.00
2022-11-13T16:50:36.828Z,9.90
2022-11-13T16:53:05.817Z,9.90
2022-11-13T16:55:33.517Z,9.90
2022-11-13T16:58:01.086Z,9.80
2022-11-13T17:00:28.822Z,9.90
2022-11-13T17:02:56.560Z,9.90
2022-11-13T17:05:24.709Z,9.90
2022-11-13T17:07:57.790Z,10.00
2022-11-13T17:10:31.891Z,10.00
2022-11-13T17:13:00.682Z,9.90
2022-11-13T17:15:28.531Z,9.90
2022-11-13T17:17:57.428Z,9.90
2022-11-13T17:20:25.083Z,10.00
2022-11-13T17:22:52.677Z,9.90
2022-11-13T17:25:20.567Z,9.90
2022-11-13T17:27:49.520Z,9.90
2022-11-13T17:30:17.338Z,10.00
2022-11-13T17:32:44.980Z,10.00
2022-11-13T17:35:13.055Z,9.90
2022-11-13T17:37:40.768Z,10.10
2022-11-13T17:40:09.021Z,10.20
2022-11-13T17:42:36.758Z,10.10
2022-11-13T17:45:06.391Z,10.10
2022-11-13T17:47:34.376Z,10.10
2022-11-13T17:50:07.032Z,10.10
2022-11-13T17:52:35.147Z,10.20
2022-11-13T17:55:06.070Z,10.10
2022-11-13T17:57:34.155Z,10.10
2022-11-13T18:00:01.773Z,10.10
2022-11-13T18:02:30.776Z,10.10
2022-11-13T18:05:01.405Z,10.10
2022-11-13T18:07:29.655Z,10.00
2022-11-13T18:09:57.470Z,10.10
2022-11-13T18:12:25.205Z,10.10
2022-11-13T18:14:53.366Z,10.10
2022-11-13T18:17:22.176Z,10.10
2022-11-13T18:19:54.763Z,10.10
2022-11-13T18:22:26.287Z,10.10
2022-11-13T18:24:54.897Z,10.10
2022-11-13T18:27:22.506Z,10.10
2022-11-13T18:29:50.144Z,10.10
2022-11-13T18:32:17.836Z,10.20
2022-11-13T18:34:45.537Z,10.20
2022-11-13T18:37:14.501Z,10.20
2022-11-13T18:39:42.124Z,10.30
2022-11-13T18:42:09.706Z,10.30
2022-11-13T18:44:37.322Z,10.20
2022-11-13T18:47:05.008Z,10.10
2022-11-13T18:49:32.679Z,10.20
2022-11-13T18:52:00.304Z,10.20
2022-11-13T18:54:29.261Z,10.10
2022-11-13T18:56:56.887Z,10.20
2022-11-13T18:59:24.624Z,10.20
2022-11-13T19:01:52.216Z,10.20
2022-11-13T19:04:23.987Z,10.20
2022-11-13T19:06:52.364Z,10.20
2022-11-13T19:09:20.089Z,10.20
2022-11-13T19:11:50.271Z,10.20
2022-11-13T19:14:19.026Z,10.20
2022-11-13T19:16:46.656Z,10.30
2022-11-13T19:19:16.200Z,10.30
2022-11-13T19:21:43.801Z,10.30
2022-11-13T19:24:14.393Z,10.30
2022-11-13T19:26:42.187Z,10.30
2022-11-13T19:29:11.408Z,10.20
2022-11-13T19:31:39.012Z,10.10
2022-11-13T19:34:07.474Z,10.20
2022-11-13T19:36:35.644Z,10.20
2022-11-13T19:39:03.506Z,10.10
2022-11-13T19:41:31.224Z,10.10
2022-11-13T19:43:59.504Z,10.20
2022-11-13T19:46:31.784Z,10.30
2022-11-13T19:48:59.385Z,10.30
2022-11-13T19:51:27.283Z,10.30
2022-11-13T19:53:55.618Z,10.30
2022-11-13T19:56:24.109Z,10.20
2022-11-13T19:58:55.474Z,10.30
2022-11-13T20:01:24.868Z,10.20
2022-11-13T20:03:57.360Z,10.30
2022-11-13T20:06:25.000Z,10.20
2022-11-13T20:08:52.540Z,10.20
2022-11-13T20:11:20.405Z,10.30
2022-11-13T20:13:48.521Z,10.30
2022-11-13T20:16:16.825Z,10.20
2022-11-13T20:18:44.792Z,10.20
2022-11-13T20:21:13.866Z,10.30
2022-11-13T20:23:41.519Z,10.20
2022-11-13T20:26:11.987Z,10.20
2022-11-13T20:28:39.613Z,10.30
2022-11-13T20:31:08.043Z,10.20
2022-11-13T20:33:36.021Z,10.10
2022-11-13T20:36:04.333Z,10.20
2022-11-13T20:38:33.313Z,10.20
2022-11-13T20:41:04.265Z,10.30
2022-11-13T20:43:32.038Z,10.30
2022-11-13T20:46:03.227Z,10.20
2022-11-13T20:48:31.288Z,10.20
2022-11-13T20:51:05.528Z,10.20
2022-11-13T20:53:36.124Z,10.20
2022-11-13T20:56:04.197Z,10.30
2022-11-13T20:58:32.206Z,10.30
2022-11-13T21:01:03.980Z,10.30
2022-11-13T21:03:32.207Z,10.30
2022-11-13T21:06:01.611Z,10.10
2022-11-13T21:08:29.618Z,10.30
2022-11-13T21:11:01.243Z,10.30
2022-11-13T21:13:28.865Z,10.20
2022-11-13T21:15:56.429Z,10.20
2022-11-13T21:18:24.135Z,10.20
2022-11-13T21:20:52.121Z,10.10
2022-11-13T21:23:19.658Z,10.20
2022-11-13T21:25:47.249Z,10.20
2022-11-13T21:28:20.900Z,10.20
2022-11-13T21:30:51.142Z,10.10
2022-11-13T21:33:18.808Z,10.20
2022-11-13T21:35:46.462Z,10.20
2022-11-13T21:38:14.072Z,10.20
2022-11-13T21:40:41.650Z,10.20
2022-11-13T21:43:09.219Z,10.20
2022-11-13T21:45:38.170Z,10.20
2022-11-13T21:48:06.041Z,10.10
2022-11-13T21:50:33.630Z,10.10
2022-11-13T21:53:01.260Z,10.20
2022-11-13T21:55:28.804Z,10.00
2022-11-13T21:57:56.415Z,10.10
2022-11-13T22:00:24.047Z,10.10
2022-11-13T22:02:53.057Z,10.10
2022-11-13T22:05:20.638Z,10.10
2022-11-13T22:07:48.623Z,10.00
2022-11-13T22:10:16.505Z,10.00
2022-11-13T22:12:44.159Z,10.10
2022-11-13T22:15:12.231Z,10.10
2022-11-13T22:17:41.128Z,10.10
2022-11-13T22:20:10.937Z,10.00
2022-11-13T22:22:38.636Z,10.00
2022-11-13T22:25:06.793Z,9.90
2022-11-13T22:27:34.362Z,9.80
2022-11-13T22:30:02.099Z,9.80
2022-11-13T22:32:30.520Z,9.80
2022-11-13T22:34:58.350Z,9.80
2022-11-13T22:37:27.281Z,9.90
2022-11-13T22:39:54.855Z,9.80
2022-11-13T22:42:22.436Z,9.80
2022-11-13T22:44:55.815Z,9.80
2022-11-13T22:47:24.185Z,9.80
2022-11-13T22:49:51.780Z,9.70
2022-11-13T22:52:19.430Z,9.70
2022-11-13T22:54:48.387Z,9.70
2022-11-13T22:57:15.969Z,10.00
2022-11-13T22:59:43.564Z,9.80
2022-11-13T23:02:11.490Z,9.80
2022-11-13T23:04:39.045Z,9.70
2022-11-13T23:07:06.745Z,9.60
2022-11-13T23:09:34.415Z,9.60
2022-11-13T23:12:03.363Z,9.70
2022-11-13T23:14:30.989Z,9.70
2022-11-13T23:16:58.548Z,9.60
2022-11-13T23:19:26.205Z,9.50
2022-11-13T23:21:53.822Z,9.50
2022-11-13T23:24:21.429Z,9.40
2022-11-13T23:26:49.090Z,9.50
2022-11-13T23:29:18.025Z,9.60
2022-11-13T23:31:45.625Z,9.60
2022-11-13T23:34:13.252Z,9.40
2022-11-13T23:36:40.819Z,9.50
2022-11-13T23:39:08.578Z,9.70
2022-11-13T23:41:36.224Z,9.50
2022-11-13T23:44:11.035Z,9.50
2022-11-13T23:46:39.940Z,9.40
2022-11-13T23:49:07.549Z,9.60
2022-11-13T23:51:35.122Z,9.40
2022-11-13T23:54:02.917Z,9.40
2022-11-13T23:56:30.460Z,9.50
2022-11-13T23:58:58.063Z,9.40
